createdAt,value
2022-11-05T00:00:38.367Z,33.77
2022-11-05T00:03:24.481Z,40.40
2022-11-05T00:06:12.674Z,40.73
2022-11-05T00:08:59.556Z,38.00
2022-11-05T00:11:41.912Z,34.10
2022-11-05T00:14:29.749Z,30.70
2022-11-05T00:16:58.553Z,29.23
2022-11-05T00:19:27.164Z,31.17
2022-11-05T00:22:13.995Z,26.47
2022-11-05T00:25:00.056Z,28.00
2022-11-05T00:27:28.870Z,25.27
2022-11-05T00:29:59.401Z,27.57
2022-11-05T00:32:28.095Z,23.87
2022-11-05T00:34:56.645Z,29.60
2022-11-05T00:37:25.500Z,27.57
2022-11-05T00:39:54.287Z,29.33
2022-11-05T00:42:40.501Z,25.57
2022-11-05T00:45:11.542Z,26.43
2022-11-05T00:47:58.328Z,30.03
2022-11-05T02:36:38.142Z,32.73
2022-11-05T02:39:15.329Z,26.43
2022-11-05T02:41:54.294Z,25.93
2022-11-05T02:44:35.139Z,24.97
2022-11-05T02:47:16.995Z,24.93
2022-11-05T02:49:53.035Z,27.60
2022-11-05T02:52:30.073Z,25.83
2022-11-05T02:55:01.532Z,28.23
2022-11-05T02:57:31.572Z,25.43
2022-11-05T03:00:03.824Z,25.23
2022-11-05T03:02:33.576Z,24.60
2022-11-05T03:05:03.666Z,25.43
2022-11-05T03:07:50.784Z,23.93
2022-11-05T03:10:35.004Z,21.27
2022-11-05T03:13:14.413Z,22.07
2022-11-05T03:15:51.324Z,22.37
2022-11-05T03:18:27.922Z,20.27
2022-11-05T03:21:03.768Z,20.73
2022-11-05T03:23:37.636Z,22.90
2022-11-05T03:26:12.614Z,20.33
2022-11-05T03:28:45.420Z,21.50
2022-11-05T03:31:16.974Z,17.90
2022-11-05T03:33:46.958Z,29.33
2022-11-05T03:36:21.083Z,21.43
2022-11-05T03:38:55.943Z,20.17
2022-11-05T03:41:25.803Z,18.50
2022-11-05T03:43:59.865Z,19.57
2022-11-05T03:46:31.588Z,20.43
2022-11-05T03:49:03.960Z,18.07
2022-11-05T03:51:40.083Z,20.77
2022-11-05T03:54:10.618Z,20.37
2022-11-05T03:56:46.544Z,22.07
2022-11-05T03:59:15.893Z,22.57
2022-11-05T04:01:44.696Z,23.97
2022-11-05T04:04:13.518Z,23.60
2022-11-05T04:06:59.268Z,23.47
2022-11-05T04:09:58.125Z,26.23
2022-11-05T04:12:44.402Z,23.93
2022-11-05T04:15:12.912Z,21.00
2022-11-05T04:17:40.654Z,20.47
2022-11-05T04:20:27.020Z,25.07
2022-11-05T04:23:18.026Z,19.37
2022-11-05T04:25:50.475Z,22.90
2022-11-05T04:28:19.176Z,18.67
2022-11-05T04:30:46.673Z,16.87
2022-11-05T04:33:16.984Z,18.97
2022-11-05T04:35:46.706Z,18.07
2022-11-05T04:38:16.575Z,16.13
2022-11-05T04:40:45.849Z,17.23
2022-11-05T04:43:18.108Z,20.53
2022-11-05T04:45:47.650Z,18.97
2022-11-05T04:48:16.147Z,17.13
2022-11-05T04:50:44.639Z,19.07
2022-11-05T04:53:13.403Z,17.13
2022-11-05T04:55:42.206Z,18.10
2022-11-05T04:58:11.133Z,14.67
2022-11-05T05:00:41.173Z,15.30
2022-11-05T05:03:10.262Z,15.90
2022-11-05T05:05:39.084Z,16.80
2022-11-05T05:08:08.050Z,17.33
2022-11-05T05:10:36.950Z,14.93
2022-11-05T05:13:05.587Z,17.73
2022-11-05T05:15:34.091Z,17.47
2022-11-05T05:18:04.299Z,16.60
2022-11-05T05:20:50.328Z,19.10
2022-11-05T05:23:18.829Z,16.33
2022-11-05T05:25:47.641Z,15.03
2022-11-05T05:28:16.203Z,14.97
2022-11-05T05:30:44.696Z,17.47
2022-11-05T05:33:14.657Z,17.20
2022-11-05T05:35:43.318Z,16.80
2022-11-05T05:38:11.807Z,17.80
2022-11-05T05:40:40.366Z,16.20
2022-11-05T05:43:09.384Z,15.47
2022-11-05T05:45:38.308Z,17.10
2022-11-05T05:48:07.309Z,16.23
2022-11-05T05:50:37.300Z,13.80
2022-11-05T05:53:05.808Z,14.13
2022-11-05T05:55:34.383Z,16.03
2022-11-05T05:58:03.182Z,14.63
2022-11-05T06:00:32.301Z,15.00
2022-11-05T06:03:00.850Z,16.20
2022-11-05T06:05:29.457Z,15.93
2022-11-05T06:07:59.727Z,14.37
2022-11-05T06:10:28.378Z,17.93
2022-11-05T06:12:56.922Z,14.23
2022-11-05T06:15:25.426Z,14.37
2022-11-05T06:17:54.234Z,17.07
2022-11-05T06:20:22.831Z,14.90
2022-11-05T06:22:56.481Z,14.17
2022-11-05T06:25:26.961Z,16.30
2022-11-05T06:27:55.908Z,14.70
2022-11-05T06:30:24.452Z,12.90
2022-11-05T06:32:52.959Z,13.97
2022-11-05T06:35:21.478Z,15.23
2022-11-05T06:37:49.999Z,16.77
2022-11-05T06:40:18.671Z,14.90
2022-11-05T06:42:53.140Z,17.27
2022-11-05T06:45:22.176Z,16.13
2022-11-05T06:47:56.055Z,15.30
2022-11-05T06:50:25.216Z,18.47
2022-11-05T06:52:58.923Z,17.23
2022-11-05T06:55:29.490Z,20.03
2022-11-05T06:57:59.516Z,21.10
2022-11-05T07:00:28.176Z,20.70
2022-11-05T07:02:57.155Z,20.40
2022-11-05T07:05:25.781Z,22.73
2022-11-05T07:07:55.576Z,22.00
2022-11-05T07:10:24.421Z,19.60
2022-11-05T07:12:52.952Z,24.43
2022-11-05T07:15:22.987Z,24.90
2022-11-05T07:17:52.020Z,22.67
2022-11-05T07:20:20.625Z,21.27
2022-11-05T07:22:49.387Z,23.17
2022-11-05T07:25:18.019Z,23.40
2022-11-05T07:27:46.558Z,20.83
2022-11-05T07:30:15.235Z,19.57
2022-11-05T07:32:45.541Z,23.93
2022-11-05T07:35:14.004Z,22.27
2022-11-05T07:37:45.829Z,28.27
2022-11-05T07:40:15.855Z,24.30
2022-11-05T07:42:45.003Z,26.37
2022-11-05T07:45:14.158Z,22.77
2022-11-05T07:47:49.527Z,22.47
2022-11-05T07:50:19.043Z,22.80
2022-11-05T07:52:48.133Z,23.50
2022-11-05T07:55:17.452Z,25.97
2022-11-05T07:57:47.017Z,26.07
2022-11-05T08:00:17.610Z,31.50
2022-11-05T08:03:00.922Z,25.87
2022-11-05T08:05:36.658Z,34.53
2022-11-05T08:08:06.298Z,36.03
2022-11-05T08:10:36.765Z,39.93
2022-11-05T08:13:06.259Z,36.97
2022-11-05T08:15:35.793Z,39.60
2022-11-05T08:18:07.721Z,37.50
2022-11-05T08:20:37.156Z,43.93
2022-11-05T08:23:05.900Z,42.97
2022-11-05T08:25:34.861Z,43.37
2022-11-05T08:28:05.550Z,45.67
2022-11-05T08:30:35.172Z,44.50
2022-11-05T08:33:08.071Z,50.87
2022-11-05T08:35:38.251Z,49.73
2022-11-05T08:38:09.151Z,48.07
2022-11-05T08:40:38.693Z,53.20
2022-11-05T08:43:08.892Z,57.37
2022-11-05T08:45:38.667Z,51.90
2022-11-05T08:48:15.133Z,54.00
2022-11-05T08:50:44.431Z,57.53
2022-11-05T08:53:13.839Z,54.70
2022-11-05T08:55:44.389Z,56.07
2022-11-05T08:58:15.277Z,63.30
2022-11-05T09:00:46.610Z,61.77
2022-11-05T09:03:17.150Z,57.53
2022-11-05T09:05:46.560Z,63.27
2022-11-05T09:08:16.809Z,58.20
2022-11-05T09:10:45.970Z,54.20
2022-11-05T09:13:18.916Z,54.33
2022-11-05T09:15:48.854Z,51.40
2022-11-05T09:18:20.703Z,48.00
2022-11-05T09:20:50.511Z,48.10
2022-11-05T09:23:19.428Z,44.77
2022-11-05T09:25:48.754Z,42.83
2022-11-05T09:28:18.724Z,44.57
2022-11-05T09:30:49.021Z,47.80
2022-11-05T09:33:20.909Z,50.43
2022-11-05T09:35:50.093Z,50.27
2022-11-05T09:38:19.043Z,46.97
2022-11-05T09:40:55.793Z,48.57
2022-11-05T09:43:31.711Z,38.60
2022-11-05T09:46:06.597Z,35.17
2022-11-05T09:48:39.560Z,33.57
2022-11-05T09:51:10.031Z,22.17
2022-11-05T09:53:42.555Z,21.37
2022-11-05T09:56:23.942Z,23.00
2022-11-05T09:58:57.597Z,25.47
2022-11-05T10:01:30.908Z,17.23
2022-11-05T10:04:03.776Z,14.07
2022-11-05T10:06:32.757Z,14.97
2022-11-05T10:09:08.359Z,11.80
2022-11-05T10:11:46.737Z,14.60
2022-11-05T10:14:21.551Z,15.13
2022-11-05T10:16:54.529Z,16.10
2022-11-05T10:19:28.189Z,13.13
2022-11-05T10:22:06.528Z,14.30
2022-11-05T10:24:36.061Z,13.77
2022-11-05T10:27:06.150Z,11.93
2022-11-05T10:29:37.176Z,13.40
2022-11-05T10:32:07.695Z,10.87
2022-11-05T10:34:39.976Z,11.90
2022-11-05T10:37:09.191Z,9.10
2022-11-05T10:39:39.538Z,8.67
2022-11-05T10:42:31.016Z,11.50
2022-11-05T10:45:05.933Z,9.90
2022-11-05T10:47:48.023Z,10.53
2022-11-05T10:50:20.967Z,14.33
2022-11-05T10:52:59.151Z,7.97
2022-11-05T10:55:30.504Z,16.67
2022-11-05T10:58:10.573Z,12.53
2022-11-05T11:00:40.265Z,8.00
2022-11-05T11:03:36.127Z,9.23
2022-11-05T11:06:13.288Z,9.07
2022-11-05T11:08:45.386Z,146.77
2022-11-05T11:11:26.512Z,6.33
2022-11-05T11:14:03.324Z,7.33
2022-11-05T11:16:40.011Z,9.80
2022-11-05T11:19:27.464Z,8.13
2022-11-05T11:22:22.245Z,6.73
2022-11-05T11:24:54.195Z,9.70
2022-11-05T11:27:28.543Z,8.67
2022-11-05T11:30:00.772Z,12.30
2022-11-05T11:32:34.486Z,7.60
2022-11-05T11:35:04.077Z,9.20
2022-11-05T11:37:37.439Z,8.20
2022-11-05T11:40:22.487Z,15.00
2022-11-05T11:43:00.172Z,24.17
2022-11-05T11:45:32.725Z,14.30
2022-11-05T11:48:03.869Z,19.70
2022-11-05T11:50:40.185Z,13.20
2022-11-05T11:53:37.871Z,9.57
2022-11-05T11:56:15.921Z,10.30
2022-11-05T11:58:47.564Z,8.57
2022-11-05T12:01:57.943Z,8.60
2022-11-05T12:04:38.594Z,9.83
2022-11-05T12:07:21.748Z,12.60
2022-11-05T12:10:10.114Z,7.80
2022-11-05T12:12:45.996Z,18.73
2022-11-05T12:15:31.010Z,11.97
2022-11-05T12:18:04.614Z,15.63
2022-11-05T12:20:52.798Z,17.23
2022-11-05T12:23:37.697Z,17.00
2022-11-05T12:26:18.080Z,12.03
2022-11-05T12:29:18.921Z,12.20
2022-11-05T12:31:58.433Z,10.93
2022-11-05T12:34:42.828Z,13.07
2022-11-05T12:37:21.372Z,10.73
2022-11-05T12:40:05.497Z,11.00
2022-11-05T12:42:52.463Z,10.60
2022-11-05T12:45:39.388Z,12.00
2022-11-05T12:48:36.834Z,8.73
2022-11-05T12:51:18.341Z,13.77
2022-11-05T12:53:57.884Z,10.40
2022-11-05T12:56:33.627Z,12.70
2022-11-05T12:59:13.231Z,13.50
2022-11-05T13:01:46.300Z,7.67
2022-11-05T13:04:25.130Z,15.17
2022-11-05T13:06:57.416Z,10.17
2022-11-05T13:09:32.046Z,10.83
2022-11-05T13:12:04.538Z,9.60
2022-11-05T13:14:39.657Z,14.80
2022-11-05T13:17:14.161Z,11.80
2022-11-05T13:19:50.563Z,11.07
2022-11-05T13:22:28.963Z,11.40
2022-11-05T13:25:05.146Z,8.50
2022-11-05T13:27:52.945Z,9.87
2022-11-05T13:30:25.088Z,10.73
2022-11-05T13:32:59.692Z,7.00
2022-11-05T13:35:32.715Z,6.37
2022-11-05T13:38:24.197Z,7.53
2022-11-05T13:41:05.502Z,6.33
2022-11-05T13:44:06.900Z,7.17
2022-11-05T13:46:48.796Z,8.00
2022-11-05T13:49:41.185Z,9.47
2022-11-05T13:52:30.341Z,8.73
2022-11-05T13:55:50.826Z,4.93
2022-11-05T13:58:47.229Z,8.00
2022-11-05T14:01:30.411Z,7.63
2022-11-05T14:04:00.799Z,7.13
2022-11-05T14:06:32.547Z,5.70
2022-11-05T14:09:10.492Z,7.40
2022-11-05T14:11:42.643Z,6.83
2022-11-05T14:14:19.201Z,7.63
2022-11-05T14:16:53.778Z,6.97
2022-11-05T14:19:38.457Z,7.43
2022-11-05T14:22:39.575Z,6.03
2022-11-05T14:25:55.349Z,6.30
2022-11-05T14:28:49.173Z,8.03
2022-11-05T14:32:02.384Z,6.83
2022-11-05T14:34:25.794Z,7.70
2022-11-05T14:37:25.018Z,7.63
2022-11-05T14:39:55.296Z,7.20
2022-11-05T14:42:28.118Z,6.03
2022-11-05T14:45:24.921Z,6.13
2022-11-05T14:47:56.516Z,8.57
2022-11-05T14:50:32.442Z,8.33
2022-11-05T14:53:11.788Z,23.63
2022-11-05T14:55:43.180Z,29.47
2022-11-05T14:58:36.985Z,28.70
2022-11-05T15:01:09.181Z,19.70
2022-11-05T15:04:01.312Z,14.37
2022-11-05T15:06:33.651Z,13.70
2022-11-05T15:09:30.744Z,13.47
2022-11-05T15:12:09.285Z,18.77
2022-11-05T15:14:50.655Z,20.07
2022-11-05T15:17:24.451Z,15.23
2022-11-05T15:19:54.801Z,11.30
2022-11-05T15:22:30.861Z,15.43
2022-11-05T15:25:03.014Z,18.30
2022-11-05T15:27:47.979Z,20.33
2022-11-05T15:30:18.742Z,20.60
2022-11-05T15:32:48.360Z,18.23
2022-11-05T15:35:23.623Z,13.50
2022-11-05T15:37:58.820Z,14.27
2022-11-05T15:40:33.648Z,13.60
2022-11-05T15:43:19.724Z,15.20
2022-11-05T15:46:06.781Z,9.87
2022-11-05T15:48:37.066Z,12.93
2022-11-05T15:51:06.379Z,10.50
2022-11-05T15:54:01.718Z,7.53
2022-11-05T15:56:37.612Z,9.37
2022-11-05T15:59:08.805Z,7.90
2022-11-05T16:01:39.599Z,6.57
2022-11-05T16:04:17.529Z,8.07
2022-11-05T16:06:50.912Z,8.60
2022-11-05T16:09:25.385Z,8.10
2022-11-05T16:12:15.828Z,10.97
2022-11-05T16:14:45.010Z,14.80
2022-11-05T16:17:21.837Z,19.83
2022-11-05T16:19:51.450Z,28.77
2022-11-05T16:22:20.558Z,21.57
2022-11-05T16:24:51.006Z,14.73
2022-11-05T16:27:23.454Z,12.33
2022-11-05T16:29:54.428Z,9.47
2022-11-05T16:32:30.788Z,15.17
2022-11-05T16:35:03.606Z,15.97
2022-11-05T16:37:39.925Z,13.30
2022-11-05T16:40:16.080Z,12.83
2022-11-05T16:42:48.890Z,11.70
2022-11-05T16:45:19.951Z,15.90
2022-11-05T16:47:49.242Z,17.73
2022-11-05T16:50:26.263Z,16.87
2022-11-05T16:52:55.310Z,19.27
2022-11-05T16:55:24.310Z,17.30
2022-11-05T16:57:57.349Z,13.83
2022-11-05T17:00:26.646Z,18.57
2022-11-05T17:02:55.930Z,21.00
2022-11-05T17:05:27.755Z,23.77
2022-11-05T17:07:57.481Z,14.90
2022-11-05T17:10:27.321Z,8.50
2022-11-05T17:13:01.900Z,8.40
2022-11-05T17:15:35.707Z,8.13
2022-11-05T17:18:06.322Z,7.97
2022-11-05T17:20:41.009Z,6.60
2022-11-05T17:23:11.964Z,10.23
2022-11-05T17:25:41.636Z,6.80
2022-11-05T17:28:13.040Z,6.17
2022-11-05T17:30:46.654Z,6.93
2022-11-05T17:33:20.300Z,7.10
2022-11-05T17:35:52.378Z,10.47
2022-11-05T17:38:22.101Z,7.67
2022-11-05T17:40:51.521Z,8.30
2022-11-05T17:43:25.174Z,6.80
2022-11-05T17:45:58.650Z,9.50
2022-11-05T17:48:30.816Z,11.10
2022-11-05T17:51:03.294Z,6.70
2022-11-05T17:53:32.668Z,6.47
2022-11-05T17:56:01.716Z,7.03
2022-11-05T17:58:32.407Z,5.07
2022-11-05T18:01:01.338Z,8.00
2022-11-05T18:03:30.259Z,9.50
2022-11-05T18:06:06.572Z,7.53
2022-11-05T18:08:35.564Z,7.63
2022-11-05T18:11:04.448Z,10.90
2022-11-05T18:13:35.108Z,8.67
2022-11-05T18:16:04.016Z,12.47
2022-11-05T18:18:33.116Z,9.37
2022-11-05T18:21:02.246Z,11.03
2022-11-05T18:23:31.179Z,12.57
2022-11-05T18:25:59.950Z,19.70
2022-11-05T18:28:32.431Z,19.00
2022-11-05T18:31:08.343Z,14.53
2022-11-05T18:33:37.468Z,21.43
2022-11-05T18:36:06.931Z,14.87
2022-11-05T18:38:35.816Z,12.63
2022-11-05T18:41:08.208Z,11.93
2022-11-05T18:43:37.598Z,17.00
2022-11-05T18:46:12.935Z,10.30
2022-11-05T18:48:50.628Z,8.40
2022-11-05T18:51:21.575Z,9.50
2022-11-05T18:53:50.867Z,7.87
2022-11-05T18:56:20.021Z,8.90
2022-11-05T18:58:49.734Z,7.10
2022-11-05T19:01:22.051Z,6.87
2022-11-05T19:03:51.967Z,5.37
2022-11-05T19:06:20.993Z,6.97
2022-11-05T19:08:51.513Z,6.10
2022-11-05T19:11:22.221Z,6.97
2022-11-05T19:13:50.937Z,4.53
2022-11-05T19:16:24.471Z,8.23
2022-11-05T19:18:54.964Z,6.53
2022-11-05T19:21:26.595Z,4.97
2022-11-05T19:23:57.976Z,6.47
2022-11-05T19:26:29.038Z,5.07
2022-11-05T19:29:00.193Z,5.33
2022-11-05T19:31:31.494Z,5.20
2022-11-05T19:34:01.507Z,7.20
2022-11-05T19:36:30.643Z,11.67
2022-11-05T19:39:01.824Z,8.30
2022-11-05T19:41:31.131Z,5.00
2022-11-05T19:44:01.982Z,5.63
2022-11-05T19:46:33.990Z,7.67
2022-11-05T19:49:02.951Z,7.17
2022-11-05T19:51:33.423Z,7.73
2022-11-05T19:54:03.553Z,7.27
2022-11-05T19:56:34.683Z,9.17
2022-11-05T19:59:04.632Z,6.77
2022-11-05T20:01:35.924Z,6.27
2022-11-05T20:04:06.626Z,8.23
2022-11-05T20:06:38.939Z,8.20
2022-11-05T20:09:21.603Z,6.57
2022-11-05T20:11:55.022Z,5.93
2022-11-05T20:14:24.595Z,5.27
2022-11-05T20:16:57.657Z,6.20
2022-11-05T20:19:28.127Z,5.93
2022-11-05T20:22:01.517Z,8.27
2022-11-05T20:24:30.840Z,6.23
2022-11-05T20:27:00.379Z,5.63
2022-11-05T20:29:35.638Z,7.57
2022-11-05T20:32:07.020Z,6.90
2022-11-05T20:34:37.536Z,9.63
2022-11-05T20:37:06.659Z,7.60
2022-11-05T20:39:35.892Z,8.07
2022-11-05T20:42:06.363Z,9.43
2022-11-05T20:44:35.806Z,10.60
2022-11-05T20:47:06.790Z,7.13
2022-11-05T20:49:39.441Z,7.27
2022-11-05T20:52:08.357Z,8.03
2022-11-05T20:54:38.045Z,7.13
2022-11-05T20:57:06.981Z,7.10
2022-11-05T20:59:36.298Z,5.50
2022-11-05T21:02:08.993Z,8.23
2022-11-05T21:04:37.971Z,7.27
2022-11-05T21:07:06.774Z,8.37
2022-11-05T21:09:36.198Z,7.37
2022-11-05T21:12:12.340Z,7.77
2022-11-05T21:14:42.426Z,9.00
2022-11-05T21:17:15.925Z,6.50
2022-11-05T21:19:44.770Z,25.73
2022-11-05T21:22:16.404Z,17.67
2022-11-05T21:24:46.010Z,14.63
2022-11-05T21:27:14.978Z,10.77
2022-11-05T21:29:46.318Z,7.00
2022-11-05T21:32:17.686Z,10.07
2022-11-05T21:34:46.547Z,7.73
2022-11-05T21:37:15.528Z,11.07
2022-11-05T21:39:44.279Z,10.10
2022-11-05T21:42:13.553Z,9.00
2022-11-05T21:44:42.256Z,8.33
2022-11-05T21:47:16.082Z,9.67
2022-11-05T21:49:45.169Z,10.53
2022-11-05T21:52:32.029Z,10.80
2022-11-05T21:55:18.843Z,11.20
2022-11-05T21:58:05.126Z,11.00
2022-11-05T22:00:34.062Z,9.10
2022-11-05T22:03:04.663Z,9.40
2022-11-05T22:05:34.340Z,7.57
2022-11-05T22:08:03.701Z,9.60
2022-11-05T22:10:32.407Z,9.53
2022-11-05T22:13:02.150Z,6.57
2022-11-05T22:15:31.393Z,8.60
2022-11-05T22:18:00.317Z,11.63
2022-11-05T22:20:30.642Z,8.53
2022-11-05T22:22:59.632Z,7.93
2022-11-05T22:25:28.673Z,7.27
2022-11-05T22:27:57.493Z,8.03
2022-11-05T22:30:27.344Z,8.77
2022-11-05T22:32:56.166Z,11.53
2022-11-05T22:35:28.195Z,11.40
2022-11-05T22:37:58.503Z,12.40
2022-11-05T22:40:28.954Z,9.23
2022-11-05T22:42:57.718Z,9.70
2022-11-05T22:45:29.064Z,10.90
2022-11-05T22:47:57.756Z,12.63
2022-11-05T22:50:27.750Z,7.37
2022-11-05T22:52:59.863Z,8.50
2022-11-05T22:55:31.568Z,7.00
2022-11-05T22:58:00.238Z,7.93
2022-11-05T23:00:37.590Z,6.83
2022-11-05T23:03:06.592Z,8.60
2022-11-05T23:05:35.717Z,9.60
2022-11-05T23:08:20.613Z,9.37
2022-11-05T23:11:06.773Z,8.67
2022-11-05T23:13:35.481Z,6.80
2022-11-05T23:16:22.295Z,8.67
2022-11-05T23:19:08.527Z,9.93
2022-11-05T23:21:57.148Z,6.13
2022-11-05T23:24:27.300Z,7.80
2022-11-05T23:26:57.953Z,9.73
2022-11-05T23:29:29.639Z,9.93
2022-11-05T23:32:15.752Z,7.87
2022-11-05T23:34:44.510Z,7.57
2022-11-05T23:37:30.693Z,7.37
2022-11-05T23:40:02.014Z,9.90
2022-11-05T23:42:48.163Z,8.47
2022-11-05T23:45:34.167Z,8.17
2022-11-05T23:48:18.784Z,11.63
2022-11-05T23:50:50.865Z,9.20
2022-11-05T23:53:20.184Z,8.50
2022-11-05T23:55:52.611Z,8.20
2022-11-05T23:58:24.163Z,8.30
